createdAt,value
2023-03-22T00:01:54.127Z,5.99
2023-03-22T00:03:59.134Z,5.94
2023-03-22T00:06:02.004Z,6.02
2023-03-22T00:08:07.431Z,6.00
2023-03-22T00:10:12.413Z,5.92
2023-03-22T00:12:15.671Z,5.91
2023-03-22T00:14:19.056Z,5.80
2023-03-22T00:16:22.504Z,5.80
2023-03-22T00:18:26.183Z,5.76
2023-03-22T00:20:38.791Z,5.73
2023-03-22T00:22:41.823Z,5.64
2023-03-22T00:24:45.040Z,5.58
2023-03-22T00:26:47.902Z,5.48
2023-03-22T00:28:51.112Z,5.39
2023-03-22T00:30:56.553Z,5.40
2023-03-22T00:33:02.794Z,5.39
2023-03-22T00:35:06.493Z,5.39
2023-03-22T00:37:10.943Z,5.34
2023-03-22T00:39:13.885Z,5.25
2023-03-22T00:41:19.003Z,5.12
2023-03-22T00:43:21.848Z,5.11
2023-03-22T00:45:27.469Z,5.12
2023-03-22T00:47:30.724Z,5.15
2023-03-22T00:49:35.469Z,5.13
2023-03-22T00:51:38.315Z,4.96
2023-03-22T00:53:43.758Z,4.93
2023-03-22T00:55:47.199Z,4.90
2023-03-22T00:57:50.258Z,4.91
2023-03-22T00:59:54.304Z,4.84
2023-03-22T01:01:59.354Z,4.85
2023-03-22T01:04:03.508Z,4.72
2023-03-22T01:06:08.143Z,4.66
2023-03-22T01:08:11.192Z,4.68
2023-03-22T01:10:15.732Z,4.64
2023-03-22T01:12:19.642Z,4.57
2023-03-22T01:14:22.773Z,4.57
2023-03-22T01:16:25.657Z,4.63
2023-03-22T01:18:28.650Z,4.51
2023-03-22T01:20:32.210Z,4.47
2023-03-22T01:22:35.381Z,4.52
2023-03-22T01:24:38.260Z,4.47
2023-03-22T01:26:42.791Z,4.48
2023-03-22T01:28:45.869Z,4.50
2023-03-22T01:30:48.924Z,4.46
2023-03-22T01:32:52.000Z,4.53
2023-03-22T01:34:54.888Z,4.50
2023-03-22T01:36:58.240Z,4.50
2023-03-22T01:39:01.864Z,4.49
2023-03-22T01:41:05.646Z,4.55
2023-03-22T01:43:17.523Z,4.63
2023-03-22T01:45:38.525Z,4.63
2023-03-22T01:47:45.758Z,4.73
2023-03-22T01:49:49.018Z,4.87
2023-03-22T01:51:56.484Z,4.92
2023-03-22T01:54:31.238Z,5.01
2023-03-22T01:56:39.571Z,5.04
2023-03-22T01:58:46.852Z,4.92
2023-03-22T02:00:54.391Z,4.84
2023-03-22T02:03:07.535Z,4.91
2023-03-22T02:05:17.314Z,5.00
2023-03-22T02:07:27.456Z,4.78
2023-03-22T02:09:32.257Z,4.62
2023-03-22T02:11:41.855Z,4.67
2023-03-22T02:14:14.998Z,4.55
2023-03-22T02:16:30.475Z,4.69
2023-03-22T02:18:52.184Z,4.86
2023-03-22T02:21:27.954Z,4.80
2023-03-22T02:24:12.743Z,4.71
2023-03-22T02:26:59.688Z,4.68
2023-03-22T02:29:12.932Z,4.55
2023-03-22T02:31:53.873Z,4.54
2023-03-22T02:34:37.471Z,4.45
2023-03-22T02:37:05.368Z,4.36
2023-03-22T02:39:16.862Z,4.46
2023-03-22T02:41:29.274Z,4.52
2023-03-22T02:43:39.061Z,4.46
2023-03-22T02:45:47.772Z,4.35
2023-03-22T02:47:56.712Z,4.27
2023-03-22T02:50:08.250Z,3.98
2023-03-22T02:52:17.783Z,4.10
2023-03-22T02:54:29.151Z,4.06
2023-03-22T02:56:39.584Z,4.07
2023-03-22T02:58:47.402Z,4.02
2023-03-22T03:00:54.725Z,4.02
2023-03-22T03:03:02.289Z,4.09
2023-03-22T03:05:06.215Z,4.14
2023-03-22T03:07:11.936Z,4.19
2023-03-22T03:09:18.259Z,4.24
2023-03-22T03:11:22.862Z,4.39
2023-03-22T03:13:25.974Z,4.37
2023-03-22T03:15:30.190Z,4.43
2023-03-22T03:17:48.020Z,4.56
2023-03-22T03:20:09.214Z,4.37
2023-03-22T03:22:36.875Z,4.18
2023-03-22T03:24:46.235Z,4.16
2023-03-22T03:26:57.902Z,4.19
2023-03-22T03:29:06.002Z,4.28
2023-03-22T03:31:18.549Z,4.37
2023-03-22T03:33:26.732Z,4.51
2023-03-22T03:35:32.846Z,4.38
2023-03-22T03:37:39.631Z,4.29
2023-03-22T03:39:48.675Z,4.37
2023-03-22T03:41:55.842Z,4.41
2023-03-22T03:43:59.755Z,4.53
2023-03-22T03:46:02.844Z,4.73
2023-03-22T03:48:09.564Z,4.73
2023-03-22T03:50:16.136Z,4.86
2023-03-22T03:52:19.362Z,4.85
2023-03-22T03:54:23.542Z,4.87
2023-03-22T03:56:27.852Z,4.90
2023-03-22T03:58:33.535Z,4.90
2023-03-22T04:00:36.749Z,4.89
2023-03-22T04:02:54.727Z,4.94
2023-03-22T04:05:14.741Z,4.98
2023-03-22T04:07:18.185Z,4.99
2023-03-22T04:09:21.484Z,5.07
2023-03-22T04:11:29.325Z,5.09
2023-03-22T04:13:37.475Z,5.21
2023-03-22T04:15:45.133Z,5.23
2023-03-22T04:17:51.404Z,5.25
2023-03-22T04:19:56.798Z,5.19
2023-03-22T04:22:00.706Z,5.20
2023-03-22T04:24:04.495Z,5.13
2023-03-22T04:26:12.337Z,5.27
2023-03-22T04:28:34.176Z,5.32
2023-03-22T04:30:39.323Z,5.18
2023-03-22T04:32:51.949Z,5.28
2023-03-22T04:35:01.795Z,5.31
2023-03-22T04:37:04.725Z,5.38
2023-03-22T04:39:11.027Z,5.35
2023-03-22T04:41:15.734Z,5.39
2023-03-22T04:43:23.289Z,5.39
2023-03-22T04:45:32.494Z,5.40
2023-03-22T04:47:39.748Z,5.32
2023-03-22T04:49:43.952Z,5.31
2023-03-22T04:51:47.338Z,5.43
2023-03-22T04:53:59.564Z,5.45
2023-03-22T04:56:05.833Z,5.48
2023-03-22T04:58:09.800Z,5.42
2023-03-22T05:00:13.697Z,5.42
2023-03-22T05:02:17.502Z,5.48
2023-03-22T05:04:23.272Z,5.46
2023-03-22T05:06:33.693Z,5.50
2023-03-22T05:08:43.613Z,5.46
2023-03-22T05:10:47.342Z,5.47
2023-03-22T05:12:50.563Z,5.49
2023-03-22T05:15:07.880Z,5.60
2023-03-22T05:17:13.584Z,5.65
2023-03-22T05:19:17.232Z,5.70
2023-03-22T05:21:28.732Z,5.71
2023-03-22T05:23:34.465Z,5.73
2023-03-22T05:25:39.033Z,5.76
2023-03-22T05:27:42.042Z,5.77
2023-03-22T05:30:14.632Z,5.85
2023-03-22T05:32:29.440Z,5.91
2023-03-22T05:34:36.234Z,5.90
2023-03-22T05:36:52.493Z,5.93
2023-03-22T05:39:05.273Z,6.00
2023-03-22T05:41:08.591Z,6.04
2023-03-22T05:43:12.855Z,6.07
2023-03-22T05:45:21.539Z,6.09
2023-03-22T05:47:34.352Z,6.14
2023-03-22T05:49:47.426Z,6.17
2023-03-22T05:51:52.378Z,6.18
2023-03-22T05:53:59.061Z,6.23
2023-03-22T05:56:10.458Z,6.21
2023-03-22T05:58:19.375Z,6.29
2023-03-22T06:00:25.890Z,6.30
2023-03-22T06:02:56.842Z,6.26
2023-03-22T06:05:00.681Z,6.29
2023-03-22T06:07:05.040Z,6.32
2023-03-22T06:09:28.072Z,6.39
2023-03-22T06:11:35.610Z,6.43
2023-03-22T06:13:41.153Z,6.47
2023-03-22T06:15:45.989Z,6.48
2023-03-22T06:17:55.622Z,6.52
2023-03-22T06:20:02.631Z,6.58
2023-03-22T06:22:08.001Z,6.60
2023-03-22T06:24:12.770Z,6.57
2023-03-22T06:26:15.753Z,6.65
2023-03-22T06:28:19.205Z,6.69
2023-03-22T06:30:27.342Z,6.75
2023-03-22T06:32:50.327Z,6.82
2023-03-22T06:34:53.564Z,6.79
2023-03-22T06:36:57.947Z,6.83
2023-03-22T06:39:09.867Z,6.86
2023-03-22T06:41:12.815Z,6.95
2023-03-22T06:43:16.044Z,6.97
2023-03-22T06:45:22.730Z,7.03
2023-03-22T06:47:26.734Z,7.09
2023-03-22T06:49:45.660Z,7.18
2023-03-22T06:51:57.448Z,7.23
2023-03-22T06:54:00.748Z,7.28
2023-03-22T06:56:07.340Z,7.34
2023-03-22T06:58:21.938Z,7.33
2023-03-22T07:00:25.083Z,7.47
2023-03-22T07:02:28.415Z,7.55
2023-03-22T07:04:55.029Z,7.67
2023-03-22T07:06:57.923Z,7.74
2023-03-22T07:09:03.063Z,7.80
2023-03-22T07:11:12.459Z,7.96
2023-03-22T07:13:15.970Z,8.06
2023-03-22T07:15:20.440Z,8.12
2023-03-22T07:17:55.740Z,8.20
2023-03-22T07:19:59.073Z,8.26
2023-03-22T07:22:03.698Z,8.34
2023-03-22T07:24:09.553Z,8.40
2023-03-22T07:26:14.318Z,8.55
2023-03-22T07:28:20.358Z,8.60
2023-03-22T07:30:23.892Z,8.81
2023-03-22T07:32:27.674Z,9.08
2023-03-22T07:34:40.109Z,9.15
2023-03-22T07:36:50.522Z,9.42
2023-03-22T07:38:53.733Z,9.62
2023-03-22T07:41:10.864Z,10.23
2023-03-22T07:43:29.490Z,10.82
2023-03-22T07:45:41.726Z,11.27
2023-03-22T07:48:17.913Z,11.91
2023-03-22T07:50:33.364Z,12.89
2023-03-22T07:52:39.766Z,12.25
2023-03-22T07:54:44.219Z,12.32
2023-03-22T07:56:48.438Z,12.87
2023-03-22T07:58:53.011Z,13.03
2023-03-22T08:00:55.959Z,12.87
2023-03-22T08:03:17.502Z,12.91
2023-03-22T08:05:35.588Z,12.96
2023-03-22T08:07:41.571Z,12.30
2023-03-22T08:09:49.821Z,12.67
2023-03-22T08:11:53.009Z,12.57
2023-03-22T08:13:57.749Z,12.66
2023-03-22T08:16:01.276Z,12.65
2023-03-22T08:18:06.337Z,12.54
2023-03-22T08:20:14.337Z,12.43
2023-03-22T08:22:26.447Z,12.46
2023-03-22T08:24:48.150Z,12.63
2023-03-22T08:38:54.261Z,12.89
2023-03-22T08:41:07.978Z,13.08
2023-03-22T08:43:10.902Z,12.92
2023-03-22T08:45:13.979Z,13.05
2023-03-22T08:47:23.906Z,13.10
2023-03-22T08:49:31.827Z,13.30
2023-03-22T08:51:40.946Z,13.58
2023-03-22T08:53:54.138Z,13.57
2023-03-22T08:56:16.920Z,13.69
2023-03-22T08:58:35.236Z,13.67
2023-03-22T09:01:12.608Z,13.94
2023-03-22T09:03:21.256Z,13.83
2023-03-22T09:05:24.929Z,13.72
2023-03-22T09:07:28.875Z,13.76
2023-03-22T09:09:44.615Z,13.82
2023-03-22T09:11:47.896Z,13.89
2023-03-22T09:13:51.657Z,14.18
2023-03-22T09:15:55.703Z,14.31
2023-03-22T09:18:02.057Z,14.43
2023-03-22T09:20:12.936Z,14.59
2023-03-22T09:22:18.944Z,14.70
2023-03-22T09:24:25.021Z,14.45
2023-03-22T09:26:32.470Z,14.67
2023-03-22T09:28:36.888Z,14.79
2023-03-22T09:30:42.561Z,15.03
2023-03-22T09:32:47.273Z,15.45
2023-03-22T09:34:52.314Z,15.77
2023-03-22T09:36:57.463Z,16.57
2023-03-22T09:39:07.495Z,16.56
2023-03-22T09:41:16.577Z,16.53
2023-03-22T09:43:21.892Z,16.27
2023-03-22T09:45:38.545Z,16.66
2023-03-22T09:47:45.562Z,16.24
2023-03-22T09:49:54.105Z,16.85
2023-03-22T09:51:57.311Z,17.51
2023-03-22T09:54:00.531Z,18.29
2023-03-22T09:56:10.932Z,17.92
2023-03-22T09:58:26.244Z,17.44
2023-03-22T10:00:40.126Z,17.75
2023-03-22T10:02:52.876Z,17.40
2023-03-22T10:05:02.355Z,18.28
2023-03-22T10:07:11.786Z,16.55
2023-03-22T10:09:19.852Z,16.29
2023-03-22T10:11:32.384Z,16.33
2023-03-22T10:13:42.013Z,16.56
2023-03-22T10:15:47.710Z,16.38
2023-03-22T10:17:52.554Z,16.94
2023-03-22T10:19:59.611Z,17.19
2023-03-22T10:22:04.887Z,17.61
2023-03-22T10:24:15.260Z,17.10
2023-03-22T10:26:22.092Z,17.93
2023-03-22T10:28:32.253Z,18.29
2023-03-22T10:30:40.275Z,18.30
2023-03-22T10:32:57.201Z,18.48
2023-03-22T10:35:00.998Z,18.41
2023-03-22T10:37:06.314Z,18.17
2023-03-22T10:39:17.091Z,18.00
2023-03-22T10:41:22.812Z,18.13
2023-03-22T10:43:31.131Z,18.53
2023-03-22T10:45:36.633Z,18.70
2023-03-22T10:47:44.889Z,18.29
2023-03-22T10:49:54.988Z,18.23
2023-03-22T10:52:02.655Z,17.93
2023-03-22T10:54:06.419Z,18.32
2023-03-22T10:56:15.859Z,18.48
2023-03-22T10:58:20.814Z,18.55
2023-03-22T11:00:25.345Z,18.65
2023-03-22T11:02:32.170Z,18.95
2023-03-22T11:04:38.496Z,18.82
2023-03-22T11:06:51.964Z,19.31
2023-03-22T11:08:59.102Z,18.94
2023-03-22T11:11:08.036Z,18.23
2023-03-22T11:13:19.657Z,18.21
2023-03-22T11:15:29.336Z,18.12
2023-03-22T11:17:38.056Z,18.83
2023-03-22T11:19:50.769Z,19.11
2023-03-22T11:21:55.017Z,19.15
2023-03-22T11:24:03.164Z,19.26
2023-03-22T11:26:10.782Z,19.08
2023-03-22T11:28:18.144Z,18.95
2023-03-22T11:30:23.656Z,18.98
2023-03-22T11:32:29.687Z,18.75
2023-03-22T11:34:34.173Z,18.89
2023-03-22T11:36:45.343Z,18.93
2023-03-22T11:38:48.956Z,19.13
2023-03-22T11:40:57.175Z,18.62
2023-03-22T11:43:16.991Z,18.55
2023-03-22T11:45:31.661Z,18.67
2023-03-22T11:47:39.596Z,18.91
2023-03-22T11:49:48.109Z,19.05
2023-03-22T11:51:53.615Z,19.03
2023-03-22T11:53:57.403Z,18.98
2023-03-22T11:56:02.702Z,19.23
2023-03-22T11:58:07.101Z,18.98
2023-03-22T12:00:20.339Z,19.19
2023-03-22T12:02:27.082Z,19.58
2023-03-22T12:04:35.039Z,19.70
2023-03-22T12:06:41.655Z,19.50
2023-03-22T12:08:49.935Z,18.98
2023-03-22T12:23:40.852Z,19.70
2023-03-22T12:25:51.066Z,19.85
2023-03-22T12:27:56.803Z,19.92
2023-03-22T12:30:05.512Z,19.83
2023-03-22T12:44:03.432Z,19.54
2023-03-22T12:46:07.581Z,19.14
2023-03-22T12:48:17.319Z,19.14
2023-03-22T12:50:24.253Z,19.13
2023-03-22T12:52:44.567Z,18.81
2023-03-22T12:54:51.666Z,18.77
2023-03-22T13:09:16.138Z,18.89
2023-03-22T13:11:25.876Z,18.78
2023-03-22T13:13:45.583Z,18.64
2023-03-22T13:16:01.790Z,18.71
2023-03-22T13:18:04.766Z,18.90
2023-03-22T13:20:41.447Z,18.94
2023-03-22T13:23:18.319Z,18.66
2023-03-22T13:25:36.242Z,18.70
2023-03-22T13:27:45.153Z,18.58
2023-03-22T13:29:54.393Z,18.53
2023-03-22T13:32:00.442Z,18.66
2023-03-22T13:34:05.039Z,18.70
2023-03-22T13:36:23.552Z,18.82
2023-03-22T13:38:29.209Z,18.76
2023-03-22T13:40:36.314Z,18.55
2023-03-22T13:42:41.752Z,18.54
2023-03-22T13:44:47.229Z,18.61
2023-03-22T13:46:50.996Z,18.97
2023-03-22T13:49:13.716Z,18.98
2023-03-22T13:51:25.948Z,18.96
2023-03-22T13:53:31.160Z,18.92
2023-03-22T13:55:47.571Z,18.89
2023-03-22T13:57:59.283Z,18.52
2023-03-22T14:00:14.985Z,18.79
2023-03-22T14:02:25.345Z,18.84
2023-03-22T14:04:35.313Z,18.26
2023-03-22T14:06:47.994Z,18.55
2023-03-22T14:08:55.133Z,18.58
2023-03-22T14:11:08.120Z,18.69
2023-03-22T14:13:18.199Z,18.74
2023-03-22T14:15:24.523Z,18.49
2023-03-22T14:17:35.134Z,18.54
2023-03-22T14:19:38.861Z,18.62
2023-03-22T14:21:47.314Z,18.42
